Time;durP1;ratioP1;P1;durP2;ratioP2;P2;SDS_P1;SDS_P2;PMS_P1;PMS_P2;Temp;Humidity;BMP_temperature;BMP_pressure;BME280_temperature;BME280_humidity;BME280_pressure;Samples;Min_cycle;Max_cycle;Signal;HPM_P1;HPM_P2
2024/03/08 00:00:14;;;;;;;;;;;24.30;54.80;;;;;;5074590;28;19920;-38
2024/03/08 00:02:39;;;;;;;;;;;24.30;54.80;;;;;;5066664;28;19939;-37
2024/03/08 00:05:06;;;;;;;;;;;24.30;54.80;;;;;;5077403;28;19912;-38
2024/03/08 00:07:32;;;;;;;;;;;24.30;54.80;;;;;;5080816;28;19920;-36
2024/03/08 00:09:58;;;;;;;;;;;24.30;54.80;;;;;;5081614;28;19914;-37
2024/03/08 00:12:26;;;;;;;;;;;24.20;54.80;;;;;;5080951;28;19912;-39
2024/03/08 00:14:54;;;;;;;;;;;24.20;54.80;;;;;;5071144;28;19913;-38
2024/03/08 00:17:22;;;;;;;;;;;24.20;54.80;;;;;;5079073;28;20450;-38
2024/03/08 00:19:49;;;;;;;;;;;24.20;54.70;;;;;;5074779;28;19944;-39
2024/03/08 00:22:16;;;;;;;;;;;24.20;54.70;;;;;;5081107;28;19970;-37
2024/03/08 00:24:42;;;;;;;;;;;24.20;54.70;;;;;;5079260;28;19908;-38
2024/03/08 00:27:08;;;;;;;;;;;24.10;54.60;;;;;;5074132;28;19913;-41
2024/03/08 00:29:35;;;;;;;;;;;24.10;54.50;;;;;;5078912;28;19944;-37
2024/03/08 00:32:01;;;;;;;;;;;24.10;54.70;;;;;;5071175;28;19912;-37
2024/03/08 00:34:26;;;;;;;;;;;24.10;54.60;;;;;;5079454;28;19919;-38
2024/03/08 00:36:52;;;;;;;;;;;24.10;54.70;;;;;;5074492;28;19979;-37
2024/03/08 00:39:20;;;;;;;;;;;24.10;54.60;;;;;;5073895;28;19962;-37
2024/03/08 00:41:47;;;;;;;;;;;24.10;54.60;;;;;;5076846;28;19920;-38
2024/03/08 00:44:13;;;;;;;;;;;24.00;54.60;;;;;;5084920;28;19914;-37
2024/03/08 00:46:39;;;;;;;;;;;24.00;54.60;;;;;;5080782;28;20011;-38
2024/03/08 00:49:06;;;;;;;;;;;24.00;54.60;;;;;;5081687;28;19908;-38
2024/03/08 00:51:32;;;;;;;;;;;24.00;54.60;;;;;;5082460;28;19912;-39
2024/03/08 00:53:58;;;;;;;;;;;24.00;54.60;;;;;;5073395;28;19919;-37
2024/03/08 00:56:24;;;;;;;;;;;23.90;54.70;;;;;;5074204;28;19912;-38
2024/03/08 00:58:50;;;;;;;;;;;23.90;54.60;;;;;;5081430;28;19918;-37
2024/03/08 01:01:18;;;;;;;;;;;23.90;54.60;;;;;;5080337;28;19966;-37
2024/03/08 01:03:44;;;;;;;;;;;23.80;54.40;;;;;;5075476;28;19975;-38
2024/03/08 01:06:11;;;;;;;;;;;23.80;54.40;;;;;;5074564;28;19919;-38
2024/03/08 01:08:38;;;;;;;;;;;23.80;54.40;;;;;;5083886;28;19917;-38
2024/03/08 01:11:04;;;;;;;;;;;23.80;54.40;;;;;;5085138;28;19916;-37
2024/03/08 01:13:31;;;;;;;;;;;23.80;54.40;;;;;;5084003;28;19908;-37
2024/03/08 01:15:58;;;;;;;;;;;23.80;54.20;;;;;;5078822;28;19916;-38
2024/03/08 01:18:24;;;;;;;;;;;23.80;54.20;;;;;;5085700;28;20282;-38
2024/03/08 01:20:52;;;;;;;;;;;23.80;54.10;;;;;;5074320;28;19924;-38
2024/03/08 01:23:18;;;;;;;;;;;23.70;54.10;;;;;;5076269;28;19912;-40
2024/03/08 01:25:45;;;;;;;;;;;23.70;54.10;;;;;;5081567;28;19920;-38
2024/03/08 01:28:12;;;;;;;;;;;23.70;54.10;;;;;;5077048;28;19970;-39
2024/03/08 01:30:39;;;;;;;;;;;23.70;54.10;;;;;;5073830;28;19913;-38
2024/03/08 01:33:07;;;;;;;;;;;23.70;54.20;;;;;;5080503;28;19938;-38
2024/03/08 01:35:34;;;;;;;;;;;23.70;54.10;;;;;;5070102;28;19997;-37
2024/03/08 01:38:00;;;;;;;;;;;23.60;54.10;;;;;;5076180;28;19955;-37
2024/03/08 01:40:27;;;;;;;;;;;23.60;54.10;;;;;;5069662;28;19916;-36
2024/03/08 01:42:53;;;;;;;;;;;23.60;54.10;;;;;;5071277;28;20647;-38
2024/03/08 01:45:22;;;;;;;;;;;23.60;54.10;;;;;;5082539;28;19916;-38
2024/03/08 01:47:48;;;;;;;;;;;23.60;54.10;;;;;;5085733;28;19908;-38
2024/03/08 01:50:15;;;;;;;;;;;23.60;54.10;;;;;;5087797;28;19931;-37
2024/03/08 01:52:45;;;;;;;;;;;23.60;54.10;;;;;;5074948;28;20518;-37
2024/03/08 01:55:14;;;;;;;;;;;23.50;54.00;;;;;;5077805;28;19913;-37
2024/03/08 01:57:41;;;;;;;;;;;23.50;54.00;;;;;;5077746;28;19920;-37
2024/03/08 02:00:10;;;;;;;;;;;23.50;54.00;;;;;;5085315;28;19916;-38
2024/03/08 02:02:38;;;;;;;;;;;23.50;54.10;;;;;;5079404;28;19916;-37
2024/03/08 02:05:04;;;;;;;;;;;23.50;54.00;;;;;;5076979;28;19919;-37
2024/03/08 02:07:31;;;;;;;;;;;23.50;54.00;;;;;;5074891;28;19908;-37
2024/03/08 02:09:58;;;;;;;;;;;23.50;54.10;;;;;;5069293;28;19919;-38
2024/03/08 02:12:24;;;;;;;;;;;23.50;54.60;;;;;;5081971;28;19919;-38
2024/03/08 02:14:53;;;;;;;;;;;23.40;54.00;;;;;;5078340;28;20041;-37
2024/03/08 02:17:20;;;;;;;;;;;23.40;54.00;;;;;;5083811;28;20061;-37
2024/03/08 02:19:48;;;;;;;;;;;23.40;54.10;;;;;;5080985;28;19975;-37
2024/03/08 02:22:15;;;;;;;;;;;23.40;54.10;;;;;;5083200;28;19940;-39
2024/03/08 02:24:41;;;;;;;;;;;23.30;54.00;;;;;;5077298;28;19920;-38
2024/03/08 02:27:07;;;;;;;;;;;23.30;53.90;;;;;;5078905;28;19926;-37
2024/03/08 02:29:34;;;;;;;;;;;23.30;54.00;;;;;;5074578;28;19920;-39
2024/03/08 02:32:00;;;;;;;;;;;23.30;54.10;;;;;;5083927;28;19912;-38
2024/03/08 02:34:27;;;;;;;;;;;23.30;54.00;;;;;;5078776;28;20845;-37
2024/03/08 02:36:53;;;;;;;;;;;23.30;54.10;;;;;;5081746;28;19919;-39
2024/03/08 02:39:19;;;;;;;;;;;23.30;54.10;;;;;;5079293;28;19965;-40
2024/03/08 02:41:47;;;;;;;;;;;23.20;54.10;;;;;;5077294;28;19917;-38
2024/03/08 02:44:14;;;;;;;;;;;23.20;54.10;;;;;;5087867;28;20021;-37
2024/03/08 02:46:41;;;;;;;;;;;23.20;54.10;;;;;;5074770;28;19912;-37
2024/03/08 02:49:11;;;;;;;;;;;23.20;54.10;;;;;;5079131;28;20015;-37
2024/03/08 02:51:38;;;;;;;;;;;23.20;54.10;;;;;;5079487;28;19912;-37
2024/03/08 02:54:05;;;;;;;;;;;23.20;54.10;;;;;;5080799;28;19912;-36
2024/03/08 02:56:34;;;;;;;;;;;23.20;54.20;;;;;;5080088;28;19916;-38
2024/03/08 02:59:01;;;;;;;;;;;23.20;54.20;;;;;;5080883;28;20015;-38
2024/03/08 03:01:28;;;;;;;;;;;23.10;54.10;;;;;;5076617;28;19920;-39
2024/03/08 03:03:55;;;;;;;;;;;23.10;54.20;;;;;;5077584;28;19912;-36
2024/03/08 03:06:21;;;;;;;;;;;23.10;54.20;;;;;;5079920;28;19908;-37
2024/03/08 03:08:48;;;;;;;;;;;23.10;54.20;;;;;;5075586;28;19916;-40
2024/03/08 03:11:15;;;;;;;;;;;23.10;54.20;;;;;;5079685;28;19978;-37
2024/03/08 03:13:42;;;;;;;;;;;23.10;54.20;;;;;;5078854;28;19916;-37
2024/03/08 03:16:10;;;;;;;;;;;23.10;54.30;;;;;;5081985;28;20043;-38
2024/03/08 03:18:36;;;;;;;;;;;23.10;54.30;;;;;;5081735;28;19919;-38
2024/03/08 03:21:07;;;;;;;;;;;23.00;54.20;;;;;;5082572;28;20447;-37
2024/03/08 03:23:34;;;;;;;;;;;23.00;54.20;;;;;;5080047;28;19908;-38
2024/03/08 03:26:02;;;;;;;;;;;23.00;54.20;;;;;;5079734;28;19952;-38
2024/03/08 03:28:28;;;;;;;;;;;23.00;54.20;;;;;;5079163;28;19916;-39
2024/03/08 03:30:58;;;;;;;;;;;23.00;54.30;;;;;;5080850;28;19966;-36
2024/03/08 03:33:25;;;;;;;;;;;23.00;54.30;;;;;;5076711;28;19916;-36
2024/03/08 03:35:54;;;;;;;;;;;22.90;54.30;;;;;;5077467;28;19913;-39
2024/03/08 03:38:23;;;;;;;;;;;22.90;54.30;;;;;;5080643;28;19973;-38
2024/03/08 03:40:52;;;;;;;;;;;22.90;54.30;;;;;;5073019;28;19928;-40
2024/03/08 03:43:18;;;;;;;;;;;22.90;54.30;;;;;;5077348;28;19916;-38
2024/03/08 03:45:45;;;;;;;;;;;22.90;54.40;;;;;;5070142;28;19916;-37
2024/03/08 03:48:12;;;;;;;;;;;22.90;54.40;;;;;;5079338;28;20435;-37
2024/03/08 03:50:38;;;;;;;;;;;22.80;54.30;;;;;;5075325;28;19913;-37
2024/03/08 03:53:07;;;;;;;;;;;22.80;54.40;;;;;;5086038;28;19912;-38
2024/03/08 03:55:34;;;;;;;;;;;22.80;54.30;;;;;;5077707;28;19912;-37
2024/03/08 03:58:01;;;;;;;;;;;22.80;54.40;;;;;;5076592;28;20361;-39
2024/03/08 04:00:27;;;;;;;;;;;22.80;54.40;;;;;;5081520;28;19962;-37
2024/03/08 04:02:54;;;;;;;;;;;22.80;54.40;;;;;;5081556;28;19931;-37
2024/03/08 04:05:21;;;;;;;;;;;22.70;54.40;;;;;;5081216;28;20068;-37
2024/03/08 04:07:47;;;;;;;;;;;22.70;54.40;;;;;;5072351;28;19912;-37
2024/03/08 04:10:14;;;;;;;;;;;22.70;54.40;;;;;;5073871;28;19935;-38
2024/03/08 04:12:40;;;;;;;;;;;22.70;54.70;;;;;;5077722;28;19919;-38
2024/03/08 04:15:07;;;;;;;;;;;22.70;54.80;;;;;;5074355;28;20718;-37
2024/03/08 04:17:37;;;;;;;;;;;22.70;54.80;;;;;;5079185;28;19969;-39
2024/03/08 04:20:08;;;;;;;;;;;22.70;54.80;;;;;;5078975;28;20876;-37
2024/03/08 04:22:35;;;;;;;;;;;22.70;54.80;;;;;;5079630;28;19920;-37
2024/03/08 04:25:02;;;;;;;;;;;22.70;54.80;;;;;;5074048;28;19919;-38
2024/03/08 04:27:28;;;;;;;;;;;22.70;54.80;;;;;;5078308;28;19912;-38
2024/03/08 04:29:53;;;;;;;;;;;22.60;54.70;;;;;;5077123;28;19912;-38
2024/03/08 04:32:19;;;;;;;;;;;22.60;54.80;;;;;;5073957;28;19919;-37
2024/03/08 04:34:45;;;;;;;;;;;22.60;54.80;;;;;;5079029;28;19909;-36
2024/03/08 04:37:13;;;;;;;;;;;22.60;55.00;;;;;;5074920;28;19919;-37
2024/03/08 04:39:39;;;;;;;;;;;22.70;55.10;;;;;;5073393;28;20669;-38
2024/03/08 04:42:09;;;;;;;;;;;22.60;55.00;;;;;;5074808;28;19950;-36
2024/03/08 04:44:37;;;;;;;;;;;22.60;55.00;;;;;;5077734;28;19917;-40
2024/03/08 04:47:05;;;;;;;;;;;22.60;54.90;;;;;;5073959;28;19908;-37
2024/03/08 04:49:34;;;;;;;;;;;22.60;54.90;;;;;;5072572;28;19912;-37
2024/03/08 04:52:02;;;;;;;;;;;22.60;54.90;;;;;;5073479;28;19955;-38
2024/03/08 04:54:28;;;;;;;;;;;22.60;55.00;;;;;;5072730;28;19913;-38
2024/03/08 04:56:54;;;;;;;;;;;22.60;55.10;;;;;;5072947;28;19919;-37
2024/03/08 04:59:20;;;;;;;;;;;22.60;55.20;;;;;;5072222;28;19913;-36
2024/03/08 05:01:47;;;;;;;;;;;22.60;55.10;;;;;;5072751;28;19928;-38
2024/03/08 05:04:15;;;;;;;;;;;22.60;55.10;;;;;;5073525;28;19908;-38
2024/03/08 05:06:41;;;;;;;;;;;22.60;55.10;;;;;;5077482;28;20060;-37
2024/03/08 05:09:16;;;;;;;;;;;22.60;55.10;;;;;;5067894;28;20388;-37
2024/03/08 05:11:43;;;;;;;;;;;22.50;55.00;;;;;;5070898;28;19915;-37
2024/03/08 05:14:19;;;;;;;;;;;22.50;55.10;;;;;;5066059;28;19919;-37
2024/03/08 05:16:48;;;;;;;;;;;22.60;55.30;;;;;;5064876;28;20385;-36
2024/03/08 05:19:16;;;;;;;;;;;22.60;55.30;;;;;;5073655;28;19916;-36
2024/03/08 05:21:43;;;;;;;;;;;22.60;55.30;;;;;;5073586;28;19920;-39
2024/03/08 05:24:10;;;;;;;;;;;22.60;55.30;;;;;;5074979;28;19913;-37
2024/03/08 05:26:37;;;;;;;;;;;22.50;55.20;;;;;;5062995;28;19912;-37
2024/03/08 05:29:03;;;;;;;;;;;22.50;55.20;;;;;;5062915;28;19913;-40
2024/03/08 05:31:29;;;;;;;;;;;22.50;55.20;;;;;;5072423;28;19912;-39
2024/03/08 05:33:55;;;;;;;;;;;22.50;55.70;;;;;;5074280;28;19908;-39
2024/03/08 05:36:21;;;;;;;;;;;22.50;55.90;;;;;;5075979;28;19942;-38
2024/03/08 05:38:49;;;;;;;;;;;22.60;55.80;;;;;;5066237;28;20837;-38
2024/03/08 05:41:14;;;;;;;;;;;22.50;55.80;;;;;;5079633;28;20003;-38
2024/03/08 05:43:40;;;;;;;;;;;22.50;55.70;;;;;;5072344;28;19960;-38
2024/03/08 05:46:06;;;;;;;;;;;22.50;55.70;;;;;;5074378;28;19912;-37
2024/03/08 05:48:32;;;;;;;;;;;22.50;55.70;;;;;;5074360;28;19908;-38
2024/03/08 05:50:58;;;;;;;;;;;22.50;55.60;;;;;;5072627;28;20265;-37
2024/03/08 05:53:24;;;;;;;;;;;22.50;55.60;;;;;;5070853;28;19912;-38
2024/03/08 05:55:50;;;;;;;;;;;22.50;55.70;;;;;;5072287;28;20391;-37
2024/03/08 05:58:16;;;;;;;;;;;22.50;55.80;;;;;;5083794;28;19912;-38
2024/03/08 06:00:42;;;;;;;;;;;22.50;55.70;;;;;;5083116;28;19927;-38
2024/03/08 06:03:08;;;;;;;;;;;22.50;55.70;;;;;;5083029;28;19923;-37
2024/03/08 06:05:33;;;;;;;;;;;22.50;55.70;;;;;;5083668;28;19912;-38
2024/03/08 06:08:00;;;;;;;;;;;22.50;55.70;;;;;;5083698;28;19919;-40
2024/03/08 06:10:26;;;;;;;;;;;22.50;55.60;;;;;;5083464;28;19948;-38
2024/03/08 06:12:52;;;;;;;;;;;22.40;55.60;;;;;;5083963;28;19912;-38
2024/03/08 06:15:20;;;;;;;;;;;22.40;55.50;;;;;;5075501;28;19913;-38
2024/03/08 06:17:46;;;;;;;;;;;22.40;55.60;;;;;;5081594;28;19912;-37
2024/03/08 06:20:13;;;;;;;;;;;22.40;55.50;;;;;;5070917;28;19920;-38
2024/03/08 06:22:42;;;;;;;;;;;22.40;55.50;;;;;;5073317;28;20371;-38
2024/03/08 06:25:13;;;;;;;;;;;22.40;55.50;;;;;;5072665;28;19924;-37
2024/03/08 06:27:46;;;;;;;;;;;22.40;55.50;;;;;;5081348;28;20580;-38
2024/03/08 06:30:12;;;;;;;;;;;22.40;55.70;;;;;;5083365;28;19908;-38
2024/03/08 06:32:38;;;;;;;;;;;22.40;55.70;;;;;;5070419;28;19913;-39
2024/03/08 06:35:07;;;;;;;;;;;22.40;55.70;;;;;;5081535;28;20033;-38
2024/03/08 06:37:54;;;;;;;;;;;22.40;55.70;;;;;;5091276;28;19909;-37
2024/03/08 06:40:19;;;;;;;;;;;22.40;55.70;;;;;;5072780;28;19913;-38
2024/03/08 06:42:46;;;;;;;;;;;22.40;55.60;;;;;;5076631;28;20409;-37
2024/03/08 06:45:15;;;;;;;;;;;22.30;55.60;;;;;;5068554;28;19909;-38
2024/03/08 06:47:41;;;;;;;;;;;22.30;55.60;;;;;;5067908;28;19986;-38
2024/03/08 06:50:08;;;;;;;;;;;22.30;55.70;;;;;;5070750;28;19916;-39
2024/03/08 06:52:34;;;;;;;;;;;22.40;55.80;;;;;;5076303;28;19919;-38
2024/03/08 06:55:01;;;;;;;;;;;22.40;55.80;;;;;;5077241;28;19953;-38
2024/03/08 06:57:29;;;;;;;;;;;22.40;55.70;;;;;;5072152;28;19928;-38
2024/03/08 06:59:56;;;;;;;;;;;22.40;55.70;;;;;;5071073;28;19968;-38
2024/03/08 07:02:24;;;;;;;;;;;22.30;55.70;;;;;;5067794;28;19920;-37
2024/03/08 07:04:50;;;;;;;;;;;22.30;55.60;;;;;;5066818;28;19940;-39
2024/03/08 07:07:20;;;;;;;;;;;22.30;55.70;;;;;;5069815;28;19912;-38
2024/03/08 07:09:46;;;;;;;;;;;22.30;55.80;;;;;;5072625;28;19912;-38
2024/03/08 07:12:13;;;;;;;;;;;22.40;55.90;;;;;;5070700;28;19912;-38
2024/03/08 07:14:40;;;;;;;;;;;22.40;55.80;;;;;;5076079;28;19946;-37
2024/03/08 07:17:08;;;;;;;;;;;22.30;55.80;;;;;;5071818;28;19923;-39
2024/03/08 07:19:34;;;;;;;;;;;22.30;55.80;;;;;;5078266;28;19912;-39
2024/03/08 07:22:03;;;;;;;;;;;22.30;55.70;;;;;;5075359;28;19921;-38
2024/03/08 07:27:13;;;;;;;;;;;22.30;55.90;;;;;;5073916;28;19920;-39
2024/03/08 07:29:39;;;;;;;;;;;22.40;56.00;;;;;;5077671;28;19916;-38
2024/03/08 07:32:25;;;;;;;;;;;22.30;55.80;;;;;;5064800;28;19995;-38
2024/03/08 07:34:51;;;;;;;;;;;22.30;55.80;;;;;;5074691;28;19913;-38
2024/03/08 07:37:17;;;;;;;;;;;22.30;55.80;;;;;;5076965;28;19916;-38
2024/03/08 07:39:43;;;;;;;;;;;22.30;55.80;;;;;;5073440;28;19917;-38
2024/03/08 07:42:10;;;;;;;;;;;22.30;55.90;;;;;;5075753;28;20304;-38
2024/03/08 07:44:36;;;;;;;;;;;22.30;56.00;;;;;;5070703;28;19912;-39
2024/03/08 07:47:03;;;;;;;;;;;22.30;55.90;;;;;;5073706;28;20288;-39
2024/03/08 07:49:29;;;;;;;;;;;22.30;56.00;;;;;;5065826;28;19920;-38
2024/03/08 07:51:56;;;;;;;;;;;22.30;55.90;;;;;;5075918;28;19916;-38
2024/03/08 07:54:22;;;;;;;;;;;22.30;55.90;;;;;;5073623;28;19944;-37
2024/03/08 07:56:48;;;;;;;;;;;22.30;55.90;;;;;;5076873;28;19916;-37
2024/03/08 07:59:14;;;;;;;;;;;22.30;56.00;;;;;;5076942;28;19912;-38
2024/03/08 08:01:40;;;;;;;;;;;22.30;56.10;;;;;;5074172;28;20019;-38
2024/03/08 08:04:06;;;;;;;;;;;22.40;56.10;;;;;;5076329;28;19920;-38
2024/03/08 08:06:33;;;;;;;;;;;22.30;56.00;;;;;;5077599;28;19912;-39
2024/03/08 08:08:59;;;;;;;;;;;22.30;56.00;;;;;;5075510;28;19919;-38
2024/03/08 08:11:28;;;;;;;;;;;22.30;56.00;;;;;;5074970;28;20347;-39
2024/03/08 08:13:57;;;;;;;;;;;22.30;56.00;;;;;;5072907;28;19979;-39
2024/03/08 08:16:23;;;;;;;;;;;22.30;56.00;;;;;;5073793;28;19912;-38
2024/03/08 08:18:50;;;;;;;;;;;22.30;56.10;;;;;;5072104;28;19912;-38
2024/03/08 08:21:16;;;;;;;;;;;22.40;56.20;;;;;;5073305;28;19925;-39
2024/03/08 08:23:41;;;;;;;;;;;22.40;56.10;;;;;;5073567;28;19971;-39
2024/03/08 08:26:07;;;;;;;;;;;22.30;56.10;;;;;;5074814;28;19924;-37
2024/03/08 08:28:33;;;;;;;;;;;22.30;56.00;;;;;;5071528;28;19908;-38
2024/03/08 08:30:59;;;;;;;;;;;22.30;56.00;;;;;;5068077;28;20671;-38
2024/03/08 08:33:25;;;;;;;;;;;22.30;56.10;;;;;;5078135;28;19912;-39
2024/03/08 08:35:53;;;;;;;;;;;22.30;56.20;;;;;;5069799;28;19918;-38
2024/03/08 08:38:20;;;;;;;;;;;22.40;56.20;;;;;;5068160;28;20990;-39
2024/03/08 08:40:47;;;;;;;;;;;22.40;56.20;;;;;;5070358;28;19917;-39
2024/03/08 08:43:13;;;;;;;;;;;22.40;56.10;;;;;;5070162;28;19916;-38
2024/03/08 08:45:39;;;;;;;;;;;22.30;56.10;;;;;;5077619;28;19973;-39
2024/03/08 08:48:06;;;;;;;;;;;22.30;56.10;;;;;;5076471;28;19912;-39
2024/03/08 08:50:32;;;;;;;;;;;22.30;56.20;;;;;;5079840;28;20507;-39
2024/03/08 08:52:58;;;;;;;;;;;22.30;56.30;;;;;;5079833;28;19947;-39
2024/03/08 08:55:27;;;;;;;;;;;22.40;56.30;;;;;;5072770;28;19963;-38
2024/03/08 08:57:53;;;;;;;;;;;22.40;56.30;;;;;;5073085;28;19920;-38
2024/03/08 09:00:20;;;;;;;;;;;22.40;56.20;;;;;;5080691;28;19908;-38
2024/03/08 09:02:46;;;;;;;;;;;22.40;56.20;;;;;;5074657;28;19973;-38
2024/03/08 09:05:14;;;;;;;;;;;22.30;56.20;;;;;;5082238;28;20424;-39
2024/03/08 09:07:40;;;;;;;;;;;22.30;56.30;;;;;;5079853;28;19919;-38
2024/03/08 09:10:09;;;;;;;;;;;22.40;56.40;;;;;;5080280;28;19995;-39
2024/03/08 09:12:34;;;;;;;;;;;22.40;56.40;;;;;;5072844;28;19960;-39
2024/03/08 09:15:00;;;;;;;;;;;22.40;56.30;;;;;;5081146;28;19908;-38
2024/03/08 09:17:26;;;;;;;;;;;22.40;56.30;;;;;;5072818;28;19988;-39
2024/03/08 09:19:52;;;;;;;;;;;22.40;56.30;;;;;;5080176;28;19912;-38
2024/03/08 09:22:18;;;;;;;;;;;22.30;56.20;;;;;;5080196;28;19920;-38
2024/03/08 09:24:44;;;;;;;;;;;22.30;56.30;;;;;;5076903;28;19909;-38
2024/03/08 09:27:10;;;;;;;;;;;22.40;56.50;;;;;;5080699;28;20008;-39
2024/03/08 09:29:36;;;;;;;;;;;22.40;56.40;;;;;;5075231;28;19924;-38
2024/03/08 09:32:02;;;;;;;;;;;22.40;56.40;;;;;;5080390;28;19920;-38
2024/03/08 09:34:28;;;;;;;;;;;22.40;56.30;;;;;;5080381;28;19943;-39
2024/03/08 09:36:54;;;;;;;;;;;22.40;56.30;;;;;;5084502;28;19912;-38
2024/03/08 09:39:20;;;;;;;;;;;22.40;56.30;;;;;;5083649;28;19917;-38
2024/03/08 09:41:49;;;;;;;;;;;22.40;56.40;;;;;;5083486;28;20400;-38
2024/03/08 09:44:15;;;;;;;;;;;22.40;56.50;;;;;;5077468;28;19964;-39
2024/03/08 09:46:46;;;;;;;;;;;22.50;56.50;;;;;;5076434;28;20725;-39
2024/03/08 09:49:12;;;;;;;;;;;22.40;56.40;;;;;;5083881;28;19997;-38
2024/03/08 09:51:40;;;;;;;;;;;22.40;56.40;;;;;;5082953;28;19912;-38
2024/03/08 09:54:05;;;;;;;;;;;22.40;56.40;;;;;;5081361;28;19912;-40
2024/03/08 09:56:32;;;;;;;;;;;22.40;56.40;;;;;;5067302;28;19957;-38
2024/03/08 10:01:44;;;;;;;;;;;22.40;56.50;;;;;;5082767;28;19934;-38
2024/03/08 10:04:10;;;;;;;;;;;22.50;56.50;;;;;;5079616;28;19912;-40
2024/03/08 10:06:36;;;;;;;;;;;22.50;56.50;;;;;;5083108;28;19916;-40
2024/03/08 10:09:02;;;;;;;;;;;22.40;56.40;;;;;;5083853;28;19908;-38
2024/03/08 10:11:28;;;;;;;;;;;22.40;56.40;;;;;;5082782;28;19939;-39
2024/03/08 10:13:54;;;;;;;;;;;22.40;56.40;;;;;;5076799;28;20372;-38
2024/03/08 10:16:21;;;;;;;;;;;22.40;56.50;;;;;;5074535;28;19930;-39
2024/03/08 10:18:47;;;;;;;;;;;22.50;56.70;;;;;;5083957;28;19912;-37
2024/03/08 10:21:15;;;;;;;;;;;22.50;56.60;;;;;;5070115;28;19927;-37
2024/03/08 10:23:43;;;;;;;;;;;22.50;56.50;;;;;;5082738;28;19912;-38
2024/03/08 10:26:14;;;;;;;;;;;22.50;56.50;;;;;;5068613;28;19912;-39
2024/03/08 10:28:44;;;;;;;;;;;22.40;56.40;;;;;;5082092;28;19935;-38
2024/03/08 10:31:10;;;;;;;;;;;22.40;56.50;;;;;;5090011;28;19972;-37
2024/03/08 10:33:37;;;;;;;;;;;22.40;56.50;;;;;;5080931;28;19916;-38
2024/03/08 10:36:03;;;;;;;;;;;22.50;56.60;;;;;;5065607;28;19972;-38
2024/03/08 10:38:32;;;;;;;;;;;22.50;56.60;;;;;;5079738;28;19912;-38
2024/03/08 10:40:58;;;;;;;;;;;22.50;56.50;;;;;;5082170;28;19947;-38
2024/03/08 10:43:29;;;;;;;;;;;22.50;56.50;;;;;;5073582;28;19978;-38
2024/03/08 10:45:59;;;;;;;;;;;22.40;56.40;;;;;;5082716;28;19912;-39
2024/03/08 10:48:32;;;;;;;;;;;22.40;56.40;;;;;;5082231;28;19942;-39
2024/03/08 10:50:59;;;;;;;;;;;22.50;56.60;;;;;;5082886;28;19948;-39
2024/03/08 10:53:26;;;;;;;;;;;22.50;56.60;;;;;;5082237;28;19916;-39
2024/03/08 10:55:53;;;;;;;;;;;22.50;56.50;;;;;;5077801;28;19919;-37
2024/03/08 10:58:22;;;;;;;;;;;22.50;56.50;;;;;;5082930;28;19934;-39
2024/03/08 11:00:51;;;;;;;;;;;22.50;56.50;;;;;;5072792;28;19924;-39
2024/03/08 11:03:35;;;;;;;;;;;22.40;56.40;;;;;;5075000;28;19919;-39
2024/03/08 11:06:01;;;;;;;;;;;22.40;56.40;;;;;;5083269;28;19913;-39
2024/03/08 11:08:27;;;;;;;;;;;22.50;56.60;;;;;;5082104;28;20332;-39
2024/03/08 11:10:56;;;;;;;;;;;22.50;56.60;;;;;;5080888;28;19915;-39
2024/03/08 11:13:43;;;;;;;;;;;22.50;56.60;;;;;;5081922;28;19919;-40
2024/03/08 11:16:32;;;;;;;;;;;22.50;56.50;;;;;;5072160;28;20450;-39
2024/03/08 11:19:04;;;;;;;;;;;22.50;56.50;;;;;;5079239;28;19922;-39
2024/03/08 11:21:33;;;;;;;;;;;22.50;56.50;;;;;;5073882;28;19938;-39
2024/03/08 11:23:59;;;;;;;;;;;22.40;56.40;;;;;;5082411;28;19915;-39
2024/03/08 11:26:25;;;;;;;;;;;22.50;56.60;;;;;;5074909;28;19919;-38
2024/03/08 11:28:53;;;;;;;;;;;22.50;56.70;;;;;;5065358;28;19979;-39
2024/03/08 11:31:22;;;;;;;;;;;22.50;56.60;;;;;;5065204;28;19904;-39
2024/03/08 11:33:49;;;;;;;;;;;22.50;56.60;;;;;;5066974;28;19938;-39
2024/03/08 11:36:24;;;;;;;;;;;22.50;56.50;;;;;;5065057;28;19919;-39
2024/03/08 11:38:52;;;;;;;;;;;22.50;56.50;;;;;;5068084;28;19995;-39
2024/03/08 11:41:19;;;;;;;;;;;22.40;56.40;;;;;;5068891;28;19920;-39
2024/03/08 11:43:45;;;;;;;;;;;22.40;56.50;;;;;;5078829;28;19920;-39
2024/03/08 11:46:14;;;;;;;;;;;22.50;56.70;;;;;;5064948;28;19908;-42
2024/03/08 11:48:43;;;;;;;;;;;22.50;56.60;;;;;;5068378;28;19957;-37
2024/03/08 11:51:13;;;;;;;;;;;22.50;56.60;;;;;;5075129;28;19908;-40
2024/03/08 11:53:39;;;;;;;;;;;22.50;56.50;;;;;;5075864;28;19908;-38
2024/03/08 11:56:08;;;;;;;;;;;22.50;56.50;;;;;;5077014;28;19908;-38
2024/03/08 11:58:36;;;;;;;;;;;22.50;56.50;;;;;;5081210;28;19912;-39
2024/03/08 12:01:06;;;;;;;;;;;22.40;56.50;;;;;;5074441;28;19913;-37
2024/03/08 12:03:34;;;;;;;;;;;22.50;56.60;;;;;;5068217;28;19956;-38
2024/03/08 12:06:00;;;;;;;;;;;22.50;56.50;;;;;;5072305;28;20015;-38
2024/03/08 12:08:30;;;;;;;;;;;22.50;56.50;;;;;;5066489;28;19908;-38
2024/03/08 12:10:59;;;;;;;;;;;22.50;56.50;;;;;;5074669;28;20650;-38
2024/03/08 12:13:29;;;;;;;;;;;22.50;56.50;;;;;;5075471;28;19915;-37
2024/03/08 12:15:58;;;;;;;;;;;22.50;56.50;;;;;;5078585;28;19908;-38
2024/03/08 12:18:26;;;;;;;;;;;22.40;56.40;;;;;;5066967;28;19909;-38
2024/03/08 12:20:52;;;;;;;;;;;22.50;56.60;;;;;;5070453;28;19928;-39
2024/03/08 12:23:18;;;;;;;;;;;22.50;56.60;;;;;;5066028;28;20296;-39
2024/03/08 12:25:44;;;;;;;;;;;22.50;56.50;;;;;;5073160;28;19940;-39
2024/03/08 12:28:10;;;;;;;;;;;22.50;56.50;;;;;;5075092;28;19973;-40
2024/03/08 12:30:37;;;;;;;;;;;22.50;56.50;;;;;;5071353;28;19916;-40
2024/03/08 12:33:03;;;;;;;;;;;22.50;56.50;;;;;;5081938;28;19911;-39
2024/03/08 12:35:30;;;;;;;;;;;22.50;56.50;;;;;;5083588;28;19958;-38
2024/03/08 12:37:56;;;;;;;;;;;22.50;56.50;;;;;;5074884;28;19908;-38
2024/03/08 12:40:31;;;;;;;;;;;22.50;56.60;;;;;;5074238;28;19971;-37
2024/03/08 12:42:57;;;;;;;;;;;22.50;56.50;;;;;;5073912;28;19920;-38
2024/03/08 12:45:24;;;;;;;;;;;22.50;56.50;;;;;;5079999;28;19922;-38
2024/03/08 12:47:53;;;;;;;;;;;22.50;56.50;;;;;;5072814;28;19972;-38
2024/03/08 12:50:19;;;;;;;;;;;22.50;57.40;;;;;;5069973;28;20606;-38
2024/03/08 12:52:45;;;;;;;;;;;22.60;58.20;;;;;;5076471;28;19912;-38
2024/03/08 12:55:12;;;;;;;;;;;22.60;59.40;;;;;;5080887;28;19920;-38
2024/03/08 12:57:38;;;;;;;;;;;22.60;59.80;;;;;;5081630;28;19916;-38
2024/03/08 13:00:04;;;;;;;;;;;22.60;60.70;;;;;;5079286;28;19919;-38
2024/03/08 13:02:31;;;;;;;;;;;22.60;61.00;;;;;;5074090;28;19916;-39
2024/03/08 13:04:57;;;;;;;;;;;22.60;62.40;;;;;;5080256;28;19943;-38
2024/03/08 13:07:25;;;;;;;;;;;22.60;63.00;;;;;;5077759;28;19912;-38
2024/03/08 13:09:52;;;;;;;;;;;22.70;62.90;;;;;;5069986;28;19969;-39
2024/03/08 13:12:20;;;;;;;;;;;22.70;64.00;;;;;;5078328;28;19976;-38
2024/03/08 13:14:46;;;;;;;;;;;22.60;63.00;;;;;;5075340;28;19908;-38
2024/03/08 13:17:12;;;;;;;;;;;22.70;62.70;;;;;;5073418;28;20419;-39
2024/03/08 13:19:38;;;;;;;;;;;22.70;62.60;;;;;;5069886;28;19916;-37
2024/03/08 13:22:04;;;;;;;;;;;22.70;62.10;;;;;;5080092;28;19920;-39
2024/03/08 13:24:30;;;;;;;;;;;22.70;62.20;;;;;;5079191;28;19916;-38
2024/03/08 13:26:56;;;;;;;;;;;22.70;62.20;;;;;;5073569;28;19913;-37
2024/03/08 13:29:22;;;;;;;;;;;22.70;62.20;;;;;;5069396;28;20308;-36
2024/03/08 13:31:51;;;;;;;;;;;22.70;62.00;;;;;;5073884;28;19916;-39
2024/03/08 13:34:27;;;;;;;;;;;22.70;62.00;;;;;;5082530;28;19912;-38
2024/03/08 13:36:59;;;;;;;;;;;22.70;61.90;;;;;;5074512;28;19912;-39
2024/03/08 13:39:25;;;;;;;;;;;22.70;61.40;;;;;;5076758;28;20466;-38
2024/03/08 13:41:51;;;;;;;;;;;22.70;61.50;;;;;;5078069;28;19917;-39
2024/03/08 13:44:17;;;;;;;;;;;22.70;60.60;;;;;;5078617;28;19919;-38
2024/03/08 13:46:43;;;;;;;;;;;22.70;60.30;;;;;;5075961;28;19913;-38
2024/03/08 13:49:10;;;;;;;;;;;22.70;60.80;;;;;;5067522;28;19915;-39
2024/03/08 13:51:36;;;;;;;;;;;22.70;59.80;;;;;;5081898;28;19920;-39
2024/03/08 13:54:02;;;;;;;;;;;22.70;59.60;;;;;;5078305;28;20372;-39
2024/03/08 13:56:31;;;;;;;;;;;22.70;59.40;;;;;;5074816;28;19964;-39
2024/03/08 13:58:57;;;;;;;;;;;22.60;59.20;;;;;;5073386;28;19935;-39
2024/03/08 14:01:23;;;;;;;;;;;22.60;59.10;;;;;;5067061;28;19917;-40
2024/03/08 14:03:49;;;;;;;;;;;22.60;59.10;;;;;;5073364;28;19909;-39
2024/03/08 14:06:15;;;;;;;;;;;22.60;59.00;;;;;;5076972;28;19904;-39
2024/03/08 14:08:41;;;;;;;;;;;22.60;59.00;;;;;;5067517;28;20666;-39
2024/03/08 14:11:12;;;;;;;;;;;22.60;59.00;;;;;;5066445;28;19909;-39
2024/03/08 14:13:47;;;;;;;;;;;22.60;58.80;;;;;;5067627;28;20433;-39
2024/03/08 14:16:13;;;;;;;;;;;22.60;58.80;;;;;;5066656;28;19909;-40
2024/03/08 14:18:39;;;;;;;;;;;22.60;58.90;;;;;;5073742;28;19912;-39
2024/03/08 14:21:05;;;;;;;;;;;22.60;58.70;;;;;;5072822;28;19939;-39